Corazon Del Mar — EA3287 — position and weather

sailwx.info

Track history (hours):
 
Tides and Currents Weather Stations Pressure Air Temp Water Temp Dewpoint Dewpoint Depression Visibility Wind Speed Wind Dir Waves Ship Positions

Corazon Del Mar

Last reported at 2017-Oct-16 13:22 UTC. Time now 2017-Oct-17 06:09 UTC.
Position N 38°00' W 000°38'.

Length 21 m.

Type: Fishing. MMSI: 224107670.

Date/timePositionNaut miles runAvg speedWind from/ knotsBaromVisibWave heightAir tempDewpointWater temp
2017-Oct-16 13:22N 38°00' W 000°38'3 8.4
2017-Oct-16 13:00N 37°58' W 000°40'  
2017-Oct-10 23:39N 37°58' W 000°41'1 3.8
2017-Oct-10 23:30N 37°58' W 000°41'5 9.5
2017-Oct-10 23:00N 37°54' W 000°39'4 8.9
2017-Oct-10 22:30N 37°52' W 000°34'3 3.3
2017-Oct-10 21:38N 37°55' W 000°32'0 1.3
2017-Oct-10 21:30N 37°55' W 000°32'1 2.0
2017-Oct-10 21:00N 37°55' W 000°33'5 9.3
2017-Oct-10 20:30N 37°57' W 000°38'3 0.2
2017-Oct-10 07:43N 37°58' W 000°41'0 0.4
2017-Oct-10 07:30N 37°58' W 000°41'1 1.1
2017-Oct-10 07:00N 37°58' W 000°41'510.6
2017-Oct-10 06:30N 37°59' W 000°35'1 0.1
2017-Oct-09 19:00N 37°59' W 000°36'4 8.5
2017-Oct-09 18:30N 37°58' W 000°41'1 0.0
2017-Oct-09 07:33N 37°58' W 000°41'0 1.3
2017-Oct-09 07:30N 37°58' W 000°41'2 4.2
2017-Oct-09 07:00N 37°57' W 000°39'5 9.6
2017-Oct-09 06:30N 37°55' W 000°33'1 2.9
2017-Oct-09 06:00N 37°54' W 000°32'0 0.6
2017-Oct-09 05:29N 37°54' W 000°32'0 0.3
2017-Oct-09 05:00N 37°54' W 000°32'0 0.4
2017-Oct-09 04:29N 37°53' W 000°32'0 0.3
2017-Oct-09 04:00N 37°53' W 000°32'1 2.8
2017-Oct-09 03:29N 37°54' W 000°31'4 1.5
2017-Oct-09 00:39N 37°59' W 000°30'1 9.0
2017-Oct-09 00:30N 37°57' W 000°31'1 2.5
2017-Oct-08 23:56N 37°56' W 000°31'0 0.3
2017-Oct-08 23:26N 37°56' W 000°31'0 1.1
2017-Oct-08 23:00N 37°56' W 000°31'3 5.4
2017-Oct-08 22:23N 37°53' W 000°33'4 8.5
2017-Oct-08 21:52N 37°55' W 000°38'3 9.0
2017-Oct-08 21:30N 37°57' W 000°41'1 1.8
2017-Oct-08 21:01N 37°58' W 000°41'  
Track history (hours):
 
Tides and Currents Weather Stations Pressure Air Temp Water Temp Dewpoint Dewpoint Depression Visibility Wind Speed Wind Dir Waves Ship Positions

Corazon Del Mar

Last reported at 2017-Oct-16 13:22 UTC. Time now 2017-Oct-17 06:09 UTC.
Position N 38°00' W 000°38'.

Length 21 m.

Type: Fishing. MMSI: 224107670.

Date/timePositionNaut miles runAvg speedWind from/ knotsBaromVisibWave heightAir tempDewpointWater temp
2017-Oct-16 13:22N 38°00' W 000°38'3 8.4
2017-Oct-16 13:00N 37°58' W 000°40'  
2017-Oct-10 23:39N 37°58' W 000°41'1 3.8
2017-Oct-10 23:30N 37°58' W 000°41'5 9.5
2017-Oct-10 23:00N 37°54' W 000°39'4 8.9
2017-Oct-10 22:30N 37°52' W 000°34'3 3.3
2017-Oct-10 21:38N 37°55' W 000°32'0 1.3
2017-Oct-10 21:30N 37°55' W 000°32'1 2.0
2017-Oct-10 21:00N 37°55' W 000°33'5 9.3
2017-Oct-10 20:30N 37°57' W 000°38'3 0.2
2017-Oct-10 07:43N 37°58' W 000°41'0 0.4
2017-Oct-10 07:30N 37°58' W 000°41'1 1.1
2017-Oct-10 07:00N 37°58' W 000°41'510.6
2017-Oct-10 06:30N 37°59' W 000°35'1 0.1
2017-Oct-09 19:00N 37°59' W 000°36'4 8.5
2017-Oct-09 18:30N 37°58' W 000°41'1 0.0
2017-Oct-09 07:33N 37°58' W 000°41'0 1.3
2017-Oct-09 07:30N 37°58' W 000°41'2 4.2
2017-Oct-09 07:00N 37°57' W 000°39'5 9.6
2017-Oct-09 06:30N 37°55' W 000°33'1 2.9
2017-Oct-09 06:00N 37°54' W 000°32'0 0.6
2017-Oct-09 05:29N 37°54' W 000°32'0 0.3
2017-Oct-09 05:00N 37°54' W 000°32'0 0.4
2017-Oct-09 04:29N 37°53' W 000°32'0 0.3
2017-Oct-09 04:00N 37°53' W 000°32'1 2.8
2017-Oct-09 03:29N 37°54' W 000°31'4 1.5
2017-Oct-09 00:39N 37°59' W 000°30'1 9.0
2017-Oct-09 00:30N 37°57' W 000°31'1 2.5
2017-Oct-08 23:56N 37°56' W 000°31'0 0.3
2017-Oct-08 23:26N 37°56' W 000°31'0 1.1
2017-Oct-08 23:00N 37°56' W 000°31'3 5.4
2017-Oct-08 22:23N 37°53' W 000°33'4 8.5
2017-Oct-08 21:52N 37°55' W 000°38'3 9.0
2017-Oct-08 21:30N 37°57' W 000°41'1 1.8
2017-Oct-08 21:01N 37°58' W 000°41'  

Dump ship's entire track history